Гроссевичи

Карта отелей и гостиниц, располагающихся рядом с аэропортом Гроссевичи :

Гроссевичи Хабаровский край 47° 59' 42.4788" N, 139° 32' 33.1188" E
Гроссевичи Хабаровский край 47° 59' 42.4788" N, 139° 32' 33.1188" E
Код аэродрома ИКАО: 
ZDH6
Код аэродрома RU: 
ЗДХ6
Координаты: 
N47.99513° E139.54253°
Превышение над уровнем моря : 
7
Основная полоса: 
06/24
Курс магнитный: 
063/243
Длина основной ВПП: 
465
Ширина основной ВПП: 
40
Покрытие основной ВПП: 
Нетвёрдое (грунт)
Освещение ВПП: 
Нет
Тип: 
Аэродром
Класс аэродрома: 
Принадлежность: 
МО
Статус: 
Недействующий
Сайт: 
E-mail аэродрома: 
Страна: 
Россия
Регион: 
Хабаровский край
Город: 
Дополнительная информация: 
В годы 2-й Мировой войны базировался 42-й ИАП на И-15, И-16, ЛаГГ-3, Як-9.

Найти трансфер

С помощью этой формы Вы можете найти трансфер из аэропорта Гроссевичи в город, аэропорт или вокзал:

Карта места

Javascript is required to view this map.

Погода в аэропортах:

Авиационная погода в Игнатьево

Регион: 
Погода METAR: 
UHBB 241700Z 00000MPS 0150 0100N R36/0400N FG VV002 05/05 Q1018 R36/290250 NOSIG RMK QBB060 QFE746/0995
Время наблюдения: 
2020-09-24T17:00:00Z
Температура C: 
5.0
Точка росы: 
5.0
Направление ветра: 
0
Скорость ветра (узлы): 
0
Метеорологическая видимость: 
0.09
Явления погоды: 
FG
Условия полета: 
LIFR
Аэропорт подробнее: 

Авиационная погода в аэропорту Алыкель

Регион: 
Погода METAR: 
UOOO 241700Z 18003MPS 9999 -RA BKN019 06/05 Q1011 R19/29//50 NOSIG RMK QFE742/0989
Время наблюдения: 
2020-09-24T17:00:00Z
Температура C: 
6.0
Точка росы: 
5.0
Направление ветра: 
180
Скорость ветра (узлы): 
6
Метеорологическая видимость: 
6.21
Явления погоды: 
-RA
Условия полета: 
MVFR
Аэропорт подробнее: 

Авиационная погода в Йоэнсуу

Регион: 
Погода METAR: 
EFJO 241650Z AUTO 13005KT 1700 BCFG NSC 13/13 Q1008
Время наблюдения: 
2020-09-24T16:50:00Z
Температура C: 
13.0
Точка росы: 
13.0
Направление ветра: 
130
Скорость ветра (узлы): 
5
Метеорологическая видимость: 
1.06
Явления погоды: 
BCFG
Условия полета: 
IFR

Авиационная погода в Синопе

Регион: 
Погода METAR: 
LTCM 241650Z 09005KT 070V130 9999 -SHRA SCT033 BKN090 23/18 Q1014
Время наблюдения: 
2020-09-24T16:50:00Z
Температура C: 
23.0
Точка росы: 
18.0
Направление ветра: 
90
Скорость ветра (узлы): 
5
Метеорологическая видимость: 
6.21
Явления погоды: 
-SHRA
Условия полета: 
VFR